Time;durP1;ratioP1;P1;durP2;ratioP2;P2;SDS_P1;SDS_P2;PMS_P1;PMS_P2;Temp;Humidity;BMP_temperature;BMP_pressure;BME280_temperature;BME280_humidity;BME280_pressure;Samples;Min_cycle;Max_cycle;Signal;HPM_P1;HPM_P2
2022/08/12 00:43:15;;;;;;;4.30;2.10;;;;;;;29.08;34.07;100898.86;104538;1309;74608;-81
2022/08/12 00:48:26;;;;;;;3.30;1.80;;;;;;;29.09;34.16;100900.07;104536;1309;61294;-81
2022/08/12 00:50:54;;;;;;;3.50;2.20;;;;;;;29.08;34.23;100901.04;104543;1309;61275;-81
2022/08/12 00:53:20;;;;;;;5.50;2.30;;;;;;;29.08;34.01;100905.17;104535;1308;74694;-81
2022/08/12 00:55:45;;;;;;;4.40;2.10;;;;;;;29.08;34.09;100904.66;104468;1308;61414;-81
2022/08/12 00:58:13;;;;;;;2.60;1.90;;;;;;;29.08;34.12;100907.70;104501;1309;61315;-82
2022/08/12 01:00:39;;;;;;;3.00;1.90;;;;;;;29.08;34.04;100905.90;104533;1309;72655;-81
2022/08/12 01:03:05;;;;;;;4.00;2.10;;;;;;;29.08;34.21;100905.42;104424;1309;61230;-81
2022/08/12 01:11:28;;;;;;;4.10;2.30;;;;;;;29.08;34.30;100905.56;104337;1309;72827;-81
2022/08/12 01:13:53;;;;;;;3.60;2.20;;;;;;;29.08;34.20;100905.39;104523;1309;75707;-81
2022/08/12 01:16:21;;;;;;;3.60;2.10;;;;;;;29.07;34.12;100899.84;104453;1309;61282;-81
2022/08/12 01:18:47;;;;;;;3.50;1.90;;;;;;;29.07;34.25;100900.36;104442;1309;61281;-81
2022/08/12 01:21:25;;;;;;;3.70;2.20;;;;;;;29.07;34.27;100898.42;104538;1309;61297;-81
2022/08/12 01:24:22;;;;;;;3.70;2.10;;;;;;;29.07;34.32;100895.67;104532;1309;74784;-80
2022/08/12 01:26:48;;;;;;;4.10;2.30;;;;;;;29.07;34.34;100894.27;104560;1309;61543;-81
2022/08/12 01:29:17;;;;;;;3.10;1.90;;;;;;;29.07;34.18;100894.84;104469;1309;61286;-81
2022/08/12 01:31:43;;;;;;;5.70;2.20;;;;;;;29.07;34.27;100889.95;104479;1309;73800;-81
2022/08/12 01:34:11;;;;;;;3.10;2.00;;;;;;;29.07;34.19;100890.27;104478;1309;61243;-81
2022/08/12 01:36:46;;;;;;;3.90;2.10;;;;;;;29.07;34.13;100889.92;104599;1309;61291;-81
2022/08/12 01:39:16;;;;;;;4.50;2.20;;;;;;;29.07;34.25;100887.06;104491;1309;61505;-81
2022/08/12 01:41:52;;;;;;;3.60;2.10;;;;;;;29.06;34.18;100886.72;104565;1309;72708;-81
2022/08/12 01:44:19;;;;;;;3.80;2.10;;;;;;;29.06;33.96;100884.00;104600;1308;76350;-81
2022/08/12 01:47:22;;;;;;;3.20;2.10;;;;;;;29.06;34.02;100883.29;104604;1309;61068;-81
2022/08/12 01:50:21;;;;;;;3.70;2.10;;;;;;;29.06;34.35;100881.73;104752;1309;61570;-80
2022/08/12 01:52:52;;;;;;;4.00;2.00;;;;;;;29.06;34.14;100883.35;104720;1308;73778;-80
2022/08/12 01:55:24;;;;;;;4.60;2.20;;;;;;;29.06;34.21;100883.69;104739;1309;75991;-81
2022/08/12 01:58:05;;;;;;;4.10;2.20;;;;;;;29.06;34.18;100877.65;104704;1309;61768;-81
2022/08/12 02:00:51;;;;;;;4.80;2.10;;;;;;;29.06;34.20;100877.10;104740;1309;61055;-80
2022/08/12 02:12:02;;;;;;;3.70;2.20;;;;;;;29.07;34.11;100869.75;104688;1309;61239;-80
2022/08/12 02:14:50;;;;;;;3.10;1.90;;;;;;;29.08;34.23;100875.83;104558;1308;72921;-81
2022/08/12 02:17:21;;;;;;;2.90;2.10;;;;;;;29.08;34.23;100876.61;104514;1309;74639;-81
2022/08/12 02:20:14;;;;;;;4.70;2.20;;;;;;;29.08;33.98;100872.95;104533;1309;61224;-81
2022/08/12 02:22:43;;;;;;;4.10;2.20;;;;;;;29.07;34.21;100872.84;104537;1309;61727;-82
2022/08/12 02:25:32;;;;;;;4.30;2.50;;;;;;;29.07;34.43;100872.46;104438;1309;72600;-82
2022/08/12 02:27:57;;;;;;;3.60;2.30;;;;;;;29.07;34.19;100873.98;104083;1316;75638;-83
2022/08/12 02:30:25;;;;;;;3.70;2.20;;;;;;;29.07;34.34;100872.69;104229;1316;61609;-83
2022/08/12 02:32:52;;;;;;;4.20;2.20;;;;;;;29.06;34.28;100869.70;104185;1316;61043;-81
2022/08/12 02:35:20;;;;;;;3.10;2.00;;;;;;;29.06;34.44;100867.90;103938;1317;75068;-82
2022/08/12 02:37:50;;;;;;;3.60;2.40;;;;;;;29.06;34.28;100867.70;104044;1317;75807;-82
2022/08/12 02:40:16;;;;;;;4.50;2.40;;;;;;;29.06;34.18;100863.05;104127;1316;61110;-82
2022/08/12 02:42:51;;;;;;;3.20;2.10;;;;;;;29.05;34.02;100864.20;103934;1317;61394;-82
2022/08/12 02:45:20;;;;;;;4.80;2.30;;;;;;;29.05;34.13;100861.30;104154;1316;72582;-82
2022/08/12 02:47:47;;;;;;;3.80;2.30;;;;;;;29.05;34.40;100863.67;104178;1317;74702;-80
2022/08/12 02:50:13;;;;;;;4.30;2.30;;;;;;;29.04;33.99;100860.86;104186;1317;61263;-81
2022/08/12 02:52:39;;;;;;;3.50;2.20;;;;;;;29.04;34.20;100863.73;104065;1317;61320;-81
2022/08/12 02:55:12;;;;;;;4.40;2.20;;;;;;;29.04;34.17;100867.58;104078;1316;79429;-82
2022/08/12 02:57:39;;;;;;;3.80;2.10;;;;;;;29.04;34.30;100865.07;104034;1316;75920;-82
2022/08/12 03:00:06;;;;;;;4.10;2.10;;;;;;;29.03;34.31;100865.86;104204;1316;62607;-81
2022/08/12 03:02:32;;;;;;;3.50;2.20;;;;;;;29.03;34.41;100868.03;104032;1316;61147;-82
2022/08/12 03:04:58;;;;;;;3.50;2.20;;;;;;;29.03;34.46;100868.98;102209;1309;2470995;-82
2022/08/12 03:07:30;;;;;;;4.00;2.50;;;;;;;29.03;34.50;100868.05;104494;1309;61309;-81
2022/08/12 03:10:08;;;;;;;3.90;2.30;;;;;;;29.03;34.43;100869.67;104556;1309;61558;-81
2022/08/12 03:12:42;;;;;;;3.60;2.30;;;;;;;29.03;34.25;100867.00;104488;1309;61381;-81
2022/08/12 03:15:14;;;;;;;4.30;2.20;;;;;;;29.02;34.27;100867.06;104403;1309;73933;-81
2022/08/12 03:17:51;;;;;;;3.90;2.40;;;;;;;29.02;34.27;100864.52;104310;1308;74988;-81
2022/08/12 03:20:19;;;;;;;4.30;2.30;;;;;;;29.02;34.42;100863.11;104404;1309;61306;-81
2022/08/12 03:22:45;;;;;;;5.40;2.50;;;;;;;29.02;34.61;100860.36;104406;1309;61165;-81
2022/08/12 03:25:15;;;;;;;3.60;2.20;;;;;;;29.02;34.31;100858.20;104515;1309;61260;-81
2022/08/12 03:27:54;;;;;;;4.40;2.10;;;;;;;29.02;34.47;100859.62;104508;1306;75728;-81
2022/08/12 03:30:21;;;;;;;3.80;2.30;;;;;;;29.01;34.31;100864.23;104458;1309;61196;-81
2022/08/12 03:32:48;;;;;;;5.10;2.30;;;;;;;28.99;34.37;100864.32;104345;1306;61515;-81
2022/08/12 03:35:26;;;;;;;4.60;2.50;;;;;;;28.97;34.60;100865.60;104306;1309;73118;-81
2022/08/12 03:38:10;;;;;;;4.60;2.40;;;;;;;28.95;34.53;100866.86;104364;1309;75392;-81
2022/08/12 04:00:24;;;;;;;6.30;3.10;;;;;;;28.72;33.94;100857.67;104118;1309;73412;-80
2022/08/12 04:03:04;;;;;;;6.60;3.10;;;;;;;28.71;34.23;100861.43;104278;1309;61278;-80
2022/08/12 04:05:48;;;;;;;7.40;3.10;;;;;;;28.69;34.18;100862.90;104281;1309;61435;-82
2022/08/12 04:08:13;;;;;;;6.80;3.20;;;;;;;28.68;33.91;100863.89;104226;1310;73704;-82
2022/08/12 04:13:24;;;;;;;4.50;2.70;;;;;;;28.66;34.14;100868.92;104370;1309;61290;-82
2022/08/12 04:15:50;;;;;;;6.10;3.30;;;;;;;28.65;34.00;100873.58;104530;1309;61723;-82
2022/08/12 04:18:16;;;;;;;10.10;3.10;;;;;;;28.65;33.86;100873.56;104457;1309;73802;-83
2022/08/12 04:20:42;;;;;;;6.50;3.10;;;;;;;28.64;33.77;100875.66;104504;1309;62016;-83
2022/08/12 04:23:11;;;;;;;6.80;2.80;;;;;;;28.63;33.84;100877.58;104517;1309;61338;-83
2022/08/12 04:25:38;;;;;;;6.50;2.90;;;;;;;28.62;33.94;100874.27;104560;1308;61132;-83
2022/08/12 04:28:06;;;;;;;8.10;2.90;;;;;;;28.61;33.92;100876.16;104532;1309;73879;-81
2022/08/12 04:30:31;;;;;;;5.50;3.00;;;;;;;28.60;33.86;100876.62;104478;1308;74862;-82
2022/08/12 04:32:57;;;;;;;7.90;3.10;;;;;;;28.59;33.78;100875.46;104566;1309;61499;-81
2022/08/12 04:35:22;;;;;;;7.60;3.10;;;;;;;28.59;33.83;100874.17;104535;1309;61328;-82
2022/08/12 04:37:53;;;;;;;5.30;3.00;;;;;;;28.58;33.94;100874.95;104518;1309;61232;-82
2022/08/12 04:40:21;;;;;;;4.70;2.70;;;;;;;28.58;33.77;100875.14;104458;1309;75160;-82
2022/08/12 04:42:46;;;;;;;6.90;2.90;;;;;;;28.58;33.71;100877.02;104531;1309;61232;-82
2022/08/12 04:45:12;;;;;;;6.40;3.50;;;;;;;28.57;33.74;100876.36;104449;1309;61279;-84
2022/08/12 04:47:38;;;;;;;5.60;3.10;;;;;;;28.56;33.80;100880.21;104466;1309;62458;-82
2022/08/12 04:50:04;;;;;;;6.70;3.20;;;;;;;28.56;33.64;100880.09;104443;1309;61244;-82
2022/08/12 04:52:29;;;;;;;7.80;3.10;;;;;;;28.56;33.61;100886.27;104435;1309;61307;-82
2022/08/12 04:54:55;;;;;;;4.50;2.80;;;;;;;28.55;33.42;100889.38;104526;1309;61269;-82
2022/08/12 04:57:21;;;;;;;4.10;3.00;;;;;;;28.55;33.77;100888.13;104400;1309;61398;-82
2022/08/12 04:59:47;;;;;;;5.80;3.10;;;;;;;28.55;33.61;100885.23;104444;1309;61308;-82
2022/08/12 05:02:12;;;;;;;5.30;3.10;;;;;;;28.55;33.55;100884.23;104486;1308;59347;-82
2022/08/12 05:04:38;;;;;;;5.30;3.10;;;;;;;28.53;33.48;100880.55;104522;1309;61519;-80
2022/08/12 05:07:06;;;;;;;6.60;3.20;;;;;;;28.54;33.54;100881.58;104603;1308;61279;-80
2022/08/12 05:09:33;;;;;;;8.80;3.20;;;;;;;28.54;33.27;100881.40;104306;1309;61141;-80
2022/08/12 05:11:58;;;;;;;5.20;3.30;;;;;;;28.54;33.61;100884.84;104436;1309;61332;-80
2022/08/12 05:14:24;;;;;;;6.40;3.80;;;;;;;28.55;33.21;100883.10;104364;1309;61355;-80
2022/08/12 05:16:50;;;;;;;5.80;2.90;;;;;;;28.56;33.43;100884.08;104449;1309;61232;-81
2022/08/12 05:19:15;;;;;;;5.30;3.00;;;;;;;28.57;33.20;100878.69;104355;1309;62973;-82
2022/08/12 05:21:44;;;;;;;6.50;3.50;;;;;;;28.58;33.25;100876.37;104277;1309;73966;-82
2022/08/12 05:24:10;;;;;;;6.90;3.00;;;;;;;28.59;33.26;100874.11;104482;1309;75555;-82
2022/08/12 05:26:35;;;;;;;8.70;2.80;;;;;;;28.61;33.18;100875.62;104454;1309;61275;-81
2022/08/12 05:29:01;;;;;;;6.60;2.90;;;;;;;28.63;33.18;100872.37;104386;1309;61243;-80
2022/08/12 05:31:27;;;;;;;5.40;2.90;;;;;;;28.63;33.52;100872.52;104524;1308;61326;-81
2022/08/12 05:33:52;;;;;;;10.90;2.90;;;;;;;28.66;33.17;100874.23;104507;1309;61385;-80
2022/08/12 05:36:18;;;;;;;11.00;3.00;;;;;;;28.68;33.22;100876.73;104543;1309;61374;-81
2022/08/12 05:38:58;;;;;;;40.80;3.70;;;;;;;28.71;33.50;100877.48;104609;1309;61137;-81
2022/08/12 05:41:25;;;;;;;46.60;4.60;;;;;;;28.73;33.58;100875.98;104441;1309;61394;-80
2022/08/12 05:43:53;;;;;;;40.10;4.00;;;;;;;28.74;33.15;100873.88;104564;1308;73800;-81
2022/08/12 05:46:19;;;;;;;20.50;3.50;;;;;;;28.76;33.54;100876.47;104538;1309;74918;-80
2022/08/12 05:48:46;;;;;;;42.70;5.00;;;;;;;28.77;33.56;100881.46;104476;1309;61417;-80
2022/08/12 05:51:11;;;;;;;25.00;3.70;;;;;;;28.76;33.24;100881.29;104609;1309;61227;-80
2022/08/12 05:53:38;;;;;;;40.60;4.10;;;;;;;28.77;33.33;100883.73;104535;1309;61292;-80
2022/08/12 05:56:04;;;;;;;28.10;3.80;;;;;;;28.78;33.34;100882.80;104383;1309;61399;-80
2022/08/12 05:58:29;;;;;;;60.30;5.50;;;;;;;28.78;33.10;100882.08;104567;1309;61282;-80
2022/08/12 06:00:56;;;;;;;51.10;5.80;;;;;;;28.78;33.21;100882.36;104558;1309;61361;-80
2022/08/12 06:03:22;;;;;;;103.40;7.40;;;;;;;28.79;33.04;100882.10;104575;1309;61263;-80
2022/08/12 06:05:48;;;;;;;37.90;4.40;;;;;;;28.80;33.32;100883.80;104296;1309;61229;-81
2022/08/12 06:08:16;;;;;;;48.80;4.90;;;;;;;28.82;33.18;100882.38;104468;1309;61307;-80
2022/08/12 06:10:42;;;;;;;24.10;3.90;;;;;;;28.82;33.10;100882.02;104426;1309;61823;-80
2022/08/12 06:13:08;;;;;;;36.20;4.40;;;;;;;28.82;33.06;100888.84;104477;1307;61294;-80
2022/08/12 06:15:39;;;;;;;31.10;5.70;;;;;;;28.83;33.07;100892.55;104525;1308;61231;-81
2022/08/12 06:18:10;;;;;;;34.10;4.30;;;;;;;28.84;33.14;100888.65;104531;1309;61182;-81
2022/08/12 06:20:37;;;;;;;29.30;4.50;;;;;;;28.85;33.12;100892.70;104489;1309;61836;-81
2022/08/12 06:23:04;;;;;;;20.10;4.20;;;;;;;28.86;33.16;100891.02;104243;1309;72946;-81
2022/08/12 06:25:29;;;;;;;57.70;6.40;;;;;;;28.86;33.05;100887.71;104412;1309;75584;-81
2022/08/12 06:27:57;;;;;;;67.10;8.30;;;;;;;28.87;33.45;100887.08;104506;1309;61332;-81
2022/08/12 06:30:24;;;;;;;80.90;7.20;;;;;;;28.89;33.90;100888.35;104469;1309;61865;-80
2022/08/12 06:32:51;;;;;;;72.90;6.90;;;;;;;28.91;34.22;100885.73;104430;1308;73986;-80
2022/08/12 06:35:17;;;;;;;53.60;5.60;;;;;;;28.92;34.43;100884.93;104484;1308;74625;-81
2022/08/12 06:37:44;;;;;;;41.50;5.60;;;;;;;28.93;34.62;100885.00;104365;1309;61292;-81
2022/08/12 06:40:11;;;;;;;24.90;4.40;;;;;;;28.94;34.84;100884.88;104412;1308;61510;-81
2022/08/12 06:42:46;;;;;;;32.30;4.10;;;;;;;28.96;34.93;100886.76;104319;1309;74774;-80
2022/08/12 06:45:13;;;;;;;24.40;4.20;;;;;;;28.96;34.73;100882.58;104271;1309;75817;-81
2022/08/12 06:47:39;;;;;;;16.60;3.60;;;;;;;28.96;35.12;100884.71;104400;1309;61147;-81
2022/08/12 06:50:05;;;;;;;13.20;3.40;;;;;;;28.97;34.77;100881.44;104355;1309;61279;-81
2022/08/12 06:52:31;;;;;;;26.90;5.10;;;;;;;28.97;34.43;100884.27;104440;1308;61283;-81
2022/08/12 06:54:58;;;;;;;11.80;3.10;;;;;;;28.96;34.91;100875.11;104441;1309;61320;-81
2022/08/12 06:57:26;;;;;;;24.00;4.70;;;;;;;28.96;34.70;100872.38;104459;1306;61322;-81
2022/08/12 06:59:53;;;;;;;13.00;3.50;;;;;;;28.98;34.92;100873.66;104477;1309;61294;-81
2022/08/12 07:02:21;;;;;;;11.30;3.80;;;;;;;28.96;34.93;100870.39;104591;1307;60029;-81
2022/08/12 07:04:47;;;;;;;13.20;3.80;;;;;;;28.94;35.03;100868.61;104462;1309;74836;-81
2022/08/12 07:07:13;;;;;;;9.40;3.20;;;;;;;28.90;34.95;100867.36;104492;1309;61186;-81
2022/08/12 07:09:39;;;;;;;9.30;3.40;;;;;;;28.88;35.16;100874.27;104499;1308;61326;-81
2022/08/12 07:12:18;;;;;;;9.10;3.10;;;;;;;28.87;35.35;100873.52;104387;1309;61359;-81
2022/08/12 07:14:50;;;;;;;9.10;2.70;;;;;;;28.85;34.96;100867.35;104419;1308;75759;-82
2022/08/12 07:17:16;;;;;;;8.90;2.90;;;;;;;28.84;34.85;100866.00;104392;1309;61316;-81
2022/08/12 07:19:43;;;;;;;9.40;2.70;;;;;;;28.83;35.04;100861.95;104261;1308;61863;-82
2022/08/12 07:22:10;;;;;;;4.60;2.80;;;;;;;28.82;35.01;100859.23;104437;1309;61250;-80
2022/08/12 07:24:35;;;;;;;8.80;2.70;;;;;;;28.81;34.69;100860.40;104551;1308;74615;-81
2022/08/12 07:27:01;;;;;;;10.50;2.70;;;;;;;28.81;34.59;100858.27;104416;1309;59427;-82
2022/08/12 07:29:27;;;;;;;9.30;3.40;;;;;;;28.80;34.58;100856.86;104490;1309;61269;-81
2022/08/12 07:31:58;;;;;;;9.20;3.00;;;;;;;28.79;34.30;100858.59;104574;1309;61288;-82
2022/08/12 07:34:25;;;;;;;7.80;2.80;;;;;;;28.78;34.31;100857.03;104218;1311;75708;-82
2022/08/12 07:36:51;;;;;;;5.60;2.90;;;;;;;28.77;33.87;100857.52;104399;1309;61294;-82
2022/08/12 07:39:17;;;;;;;7.70;2.60;;;;;;;28.77;33.94;100859.51;104392;1308;61187;-82
2022/08/12 07:41:43;;;;;;;5.40;2.70;;;;;;;28.77;34.02;100858.81;104389;1309;61383;-82
2022/08/12 07:44:09;;;;;;;5.70;2.80;;;;;;;28.78;33.81;100859.06;104479;1309;61384;-81
2022/08/12 07:46:37;;;;;;;6.50;2.60;;;;;;;28.78;33.54;100861.17;104427;1307;62723;-81
2022/08/12 07:49:05;;;;;;;6.20;2.70;;;;;;;28.80;33.62;100859.25;104521;1309;61137;-81
2022/08/12 07:51:31;;;;;;;7.40;2.90;;;;;;;28.79;33.36;100858.59;104414;1309;74972;-82
2022/08/12 07:53:58;;;;;;;7.20;2.60;;;;;;;28.79;32.91;100855.85;104398;1309;61291;-81
2022/08/12 07:56:24;;;;;;;6.40;2.50;;;;;;;28.80;33.11;100857.80;104439;1309;61321;-81
2022/08/12 07:58:50;;;;;;;3.70;2.40;;;;;;;28.80;33.05;100858.86;104328;1309;61382;-81
2022/08/12 08:01:20;;;;;;;4.30;2.40;;;;;;;28.81;33.15;100860.03;104418;1310;61281;-81
2022/08/12 08:06:32;;;;;;;5.30;2.50;;;;;;;28.82;33.21;100855.79;104464;1309;61268;-81
2022/08/12 08:08:58;;;;;;;5.80;2.40;;;;;;;28.81;32.98;100857.99;104481;1309;61422;-81
2022/08/12 08:14:09;;;;;;;4.80;2.60;;;;;;;28.81;33.02;100862.30;104438;1309;74616;-81
2022/08/12 08:16:39;;;;;;;7.10;2.80;;;;;;;28.81;33.02;100860.34;104470;1308;61250;-81
2022/08/12 08:19:18;;;;;;;6.50;2.90;;;;;;;28.83;33.05;100862.35;104494;1309;61385;-81
2022/08/12 08:21:44;;;;;;;7.70;3.00;;;;;;;28.85;33.18;100863.23;104622;1308;74016;-81
2022/08/12 08:24:15;;;;;;;5.90;3.00;;;;;;;28.86;33.18;100860.55;104332;1309;61314;-81
2022/08/12 08:26:42;;;;;;;7.90;3.10;;;;;;;28.88;33.32;100861.27;104470;1309;61057;-82
2022/08/12 08:29:08;;;;;;;7.90;3.00;;;;;;;28.90;33.36;100862.85;104423;1310;61233;-80
2022/08/12 08:31:37;;;;;;;6.90;2.80;;;;;;;28.92;33.26;100858.70;104388;1309;61368;-82
2022/08/12 08:34:03;;;;;;;7.10;3.20;;;;;;;28.93;33.44;100856.61;104458;1309;75498;-80
2022/08/12 08:36:29;;;;;;;6.10;3.00;;;;;;;28.94;33.46;100847.21;104569;1309;59925;-80
2022/08/12 08:38:55;;;;;;;7.30;3.20;;;;;;;28.96;33.78;100843.62;104518;1306;61272;-82
2022/08/12 08:44:05;;;;;;;7.50;3.50;;;;;;;28.98;33.53;100838.67;104210;1308;75139;-83
2022/08/12 08:46:36;;;;;;;6.60;3.60;;;;;;;28.99;33.73;100839.83;104236;1309;61877;-81
2022/08/12 08:49:04;;;;;;;7.20;3.50;;;;;;;29.00;33.76;100838.08;104266;1309;61667;-81
2022/08/12 08:51:30;;;;;;;8.90;4.00;;;;;;;29.01;33.75;100833.83;104424;1307;72748;-81
2022/08/12 08:53:55;;;;;;;9.80;4.60;;;;;;;29.02;33.64;100833.91;105353;1309;59636;-81
2022/08/12 08:56:21;;;;;;;10.90;4.40;;;;;;;29.04;33.79;100831.91;104579;1309;61276;-81
2022/08/12 08:58:48;;;;;;;6.00;4.20;;;;;;;29.06;33.88;100828.45;104462;1309;61349;-83
2022/08/12 09:01:19;;;;;;;7.10;3.90;;;;;;;29.06;33.92;100822.20;104391;1309;61354;-81
2022/08/12 09:03:46;;;;;;;7.80;4.50;;;;;;;29.07;33.79;100822.14;104463;1308;74795;-81
2022/08/12 09:06:13;;;;;;;6.50;4.70;;;;;;;29.07;33.71;100815.94;104321;1308;61566;-81
2022/08/12 09:08:42;;;;;;;8.20;4.40;;;;;;;29.08;34.01;100815.13;104311;1310;61369;-81
2022/08/12 09:13:52;;;;;;;8.80;4.60;;;;;;;29.09;33.91;100818.11;104416;1309;74852;-81
2022/08/12 09:16:19;;;;;;;8.40;5.00;;;;;;;29.10;33.82;100808.42;104491;1309;61342;-81
2022/08/12 09:18:45;;;;;;;6.10;4.40;;;;;;;29.10;34.04;100802.45;104332;1309;60635;-81
2022/08/12 09:21:11;;;;;;;7.20;4.70;;;;;;;29.11;33.82;100804.73;104346;1310;61242;-81
2022/08/12 09:23:37;;;;;;;8.70;4.60;;;;;;;29.10;33.93;100801.13;104338;1309;61394;-82
2022/08/12 09:26:03;;;;;;;9.10;4.50;;;;;;;29.11;34.08;100797.63;104351;1309;61411;-81
2022/08/12 09:28:28;;;;;;;5.80;4.50;;;;;;;29.11;34.00;100799.78;104351;1309;61301;-83
2022/08/12 09:30:57;;;;;;;7.30;4.80;;;;;;;29.11;34.19;100803.61;104415;1308;61247;-81
2022/08/12 09:33:42;;;;;;;;;;;;;;;;;;;;;
2022/08/12 09:36:09;;;;;;;6.70;4.30;;;;;;;29.11;34.11;100796.89;104404;1309;61649;-81
2022/08/12 09:38:34;;;;;;;6.70;4.60;;;;;;;29.11;34.26;100797.26;104428;1309;61227;-81
2022/08/12 09:41:00;;;;;;;8.30;4.90;;;;;;;29.12;34.07;100792.88;104319;1309;61289;-81
2022/08/12 09:46:15;;;;;;;8.00;5.20;;;;;;;29.11;34.14;100783.67;104485;1309;61204;-80
2022/08/12 09:48:41;;;;;;;8.90;5.10;;;;;;;29.12;34.33;100783.44;104369;1309;61217;-81
2022/08/12 09:51:10;;;;;;;7.00;4.90;;;;;;;29.11;34.23;100781.45;104359;1307;61252;-81
2022/08/12 09:53:36;;;;;;;6.40;4.80;;;;;;;29.11;34.25;100778.58;104301;1309;73765;-81
2022/08/12 09:56:02;;;;;;;6.50;4.80;;;;;;;29.11;34.32;100777.15;104293;1309;61342;-81
2022/08/12 09:58:28;;;;;;;7.70;5.30;;;;;;;29.12;34.31;100774.73;104517;1307;61256;-81
2022/08/12 10:01:05;;;;;;;7.80;5.50;;;;;;;29.12;34.33;100766.97;104326;1309;61310;-81
2022/08/12 10:03:32;;;;;;;6.70;4.70;;;;;;;29.12;34.51;100770.52;104584;1309;74800;-82
2022/08/12 10:05:58;;;;;;;6.90;5.00;;;;;;;29.12;34.29;100759.17;104404;1309;61269;-81
2022/08/12 10:08:31;;;;;;;8.00;5.10;;;;;;;29.12;34.15;100754.92;104375;1309;61173;-80
2022/08/12 10:13:42;;;;;;;9.00;5.30;;;;;;;29.12;34.60;100748.58;104585;1307;74715;-80
2022/08/12 10:16:12;;;;;;;6.50;5.00;;;;;;;29.12;34.21;100741.30;104591;1309;61268;-81
2022/08/12 10:18:42;;;;;;;8.70;5.00;;;;;;;29.12;34.45;100739.50;104490;1309;61291;-82
2022/08/12 10:21:09;;;;;;;7.90;4.80;;;;;;;29.13;34.44;100740.02;104543;1307;72824;-82
2022/08/12 10:23:39;;;;;;;7.40;5.20;;;;;;;29.12;34.56;100735.19;104530;1309;61316;-83
2022/08/12 10:31:33;;;;;;;7.00;5.30;;;;;;;29.11;34.53;100717.89;104602;1309;72588;-82
2022/08/12 10:33:59;;;;;;;8.40;5.50;;;;;;;29.11;34.38;100716.27;104464;1309;61150;-82
2022/08/12 10:36:25;;;;;;;7.30;5.70;;;;;;;29.12;34.54;100716.57;104321;1309;61378;-81
2022/08/12 10:38:50;;;;;;;7.10;5.50;;;;;;;29.10;34.44;100715.03;104519;1308;61311;-81
2022/08/12 10:44:04;;;;;;;7.80;5.40;;;;;;;29.10;34.58;100713.27;104498;1308;74823;-82
2022/08/12 10:46:30;;;;;;;;;;;;;;;29.10;34.44;100710.36;104586;1308;61839;-81
2022/08/12 10:48:55;;;;;;;7.10;5.20;;;;;;;29.08;34.51;100707.70;104615;1308;61247;-82
2022/08/12 10:51:21;;;;;;;6.70;5.10;;;;;;;29.08;34.63;100704.77;104493;1308;61304;-80
2022/08/12 10:53:47;;;;;;;7.80;5.40;;;;;;;29.08;34.48;100707.52;104579;1309;61495;-81
2022/08/12 10:56:14;;;;;;;7.30;5.30;;;;;;;29.08;34.72;100706.27;104501;1307;61361;-82
2022/08/12 10:58:40;;;;;;;6.90;5.40;;;;;;;29.08;34.70;100709.16;104543;1307;61481;-81
2022/08/12 11:01:09;;;;;;;7.10;4.90;;;;;;;29.08;34.60;100704.47;104462;1309;61318;-81
2022/08/12 11:03:38;;;;;;;;;;;;;;;29.07;34.45;100702.70;104529;1309;61294;-81
2022/08/12 11:06:04;;;;;;;;;;;;;;;29.05;34.64;100698.08;104532;1309;61489;-81
2022/08/12 11:08:30;;;;;;;7.10;5.40;;;;;;;29.05;34.77;100697.59;104559;1308;61147;-80
2022/08/12 11:10:55;;;;;;;10.10;5.80;;;;;;;29.05;34.58;100689.41;104555;1309;61337;-81
2022/08/12 11:13:21;;;;;;;8.10;5.40;;;;;;;29.05;35.04;100694.27;104471;1309;61284;-82
2022/08/12 11:15:47;;;;;;;8.70;5.20;;;;;;;29.06;34.78;100696.21;104586;1308;61209;-81
2022/08/12 11:18:12;;;;;;;7.50;5.20;;;;;;;29.06;34.60;100703.95;104571;1308;61257;-81
2022/08/12 11:20:38;;;;;;;7.40;5.20;;;;;;;29.06;34.63;100699.61;104601;1308;59338;-81
2022/08/12 11:23:04;;;;;;;8.50;5.00;;;;;;;29.06;34.77;100693.80;104360;1307;61433;-82
2022/08/12 11:25:29;;;;;;;7.90;5.30;;;;;;;29.06;34.77;100689.64;104397;1308;61250;-81
2022/08/12 11:27:55;;;;;;;6.90;5.20;;;;;;;29.06;34.97;100685.61;104533;1309;61422;-81
2022/08/12 11:30:20;;;;;;;6.80;5.20;;;;;;;29.07;34.81;100679.95;104315;1309;61299;-82
2022/08/12 11:32:46;;;;;;;6.70;5.30;;;;;;;29.08;34.78;100679.30;104318;1308;60058;-83
2022/08/12 11:35:12;;;;;;;6.70;4.90;;;;;;;29.08;34.91;100681.95;104453;1309;72586;-81
2022/08/12 11:37:39;;;;;;;7.30;5.30;;;;;;;29.08;34.64;100685.92;104464;1308;61259;-82
2022/08/12 11:40:06;;;;;;;6.80;5.20;;;;;;;29.09;34.88;100684.95;104431;1308;61780;-81
2022/08/12 11:42:31;;;;;;;6.80;4.90;;;;;;;29.09;34.58;100686.34;104299;1308;61308;-81
2022/08/12 11:44:57;;;;;;;7.70;5.30;;;;;;;29.11;34.95;100676.11;104473;1307;61275;-81
2022/08/12 11:47:23;;;;;;;7.20;5.30;;;;;;;29.11;34.86;100672.23;104533;1308;61245;-81
2022/08/12 11:49:50;;;;;;;6.80;5.20;;;;;;;29.11;35.08;100667.55;104569;1309;61266;-82
2022/08/12 11:52:17;;;;;;;7.30;5.10;;;;;;;29.11;34.87;100666.94;104613;1309;61431;-81
2022/08/12 11:54:43;;;;;;;6.60;5.00;;;;;;;29.12;34.72;100664.55;104568;1308;61327;-81
2022/08/12 11:57:08;;;;;;;7.00;5.10;;;;;;;29.12;34.85;100661.09;104506;1308;61290;-80
2022/08/12 11:59:34;;;;;;;7.20;5.40;;;;;;;29.13;34.85;100655.09;104578;1309;61284;-82
2022/08/12 12:01:59;;;;;;;7.20;5.10;;;;;;;29.13;34.69;100655.25;104583;1309;61263;-82
2022/08/12 12:04:25;;;;;;;6.50;5.20;;;;;;;29.13;34.95;100659.23;104602;1309;61199;-83
2022/08/12 12:06:50;;;;;;;7.20;5.10;;;;;;;29.12;35.02;100656.38;104553;1308;61269;-81
2022/08/12 12:09:16;;;;;;;7.30;5.10;;;;;;;29.12;35.15;100655.29;104520;1309;61288;-82
2022/08/12 12:11:42;;;;;;;5.90;4.70;;;;;;;29.13;34.96;100657.94;104592;1309;61280;-81
2022/08/12 12:14:09;;;;;;;8.00;5.30;;;;;;;29.13;35.21;100658.85;104593;1309;61224;-81
2022/08/12 12:16:35;;;;;;;7.10;4.80;;;;;;;29.12;35.18;100656.00;104566;1308;62179;-82
2022/08/12 12:19:01;;;;;;;7.80;5.30;;;;;;;29.12;35.24;100652.41;104599;1309;61291;-81
2022/08/12 12:21:27;;;;;;;6.20;4.70;;;;;;;29.12;35.06;100651.65;104695;1308;61371;-83
2022/08/12 12:23:53;;;;;;;6.60;5.20;;;;;;;29.12;34.92;100649.52;104607;1309;61176;-83
2022/08/12 12:26:18;;;;;;;6.80;5.10;;;;;;;29.12;35.03;100647.38;104614;1308;61158;-81
2022/08/12 12:28:44;;;;;;;6.80;4.90;;;;;;;29.12;34.97;100648.27;104581;1309;61240;-81
2022/08/12 12:31:10;;;;;;;6.40;4.90;;;;;;;29.12;35.09;100646.45;104503;1308;61397;-81
2022/08/12 12:33:35;;;;;;;7.10;5.10;;;;;;;29.12;35.29;100648.24;104592;1309;61364;-82
2022/08/12 12:36:01;;;;;;;6.60;5.10;;;;;;;29.12;35.49;100646.79;104635;1308;59291;-81
2022/08/12 12:38:27;;;;;;;6.30;4.90;;;;;;;29.12;35.26;100643.70;104611;1308;61187;-82
2022/08/12 12:40:52;;;;;;;7.60;5.10;;;;;;;29.12;35.16;100639.19;104536;1309;61460;-82
2022/08/12 12:43:18;;;;;;;7.30;5.40;;;;;;;29.12;35.44;100638.27;104588;1309;61425;-82
2022/08/12 12:45:44;;;;;;;7.60;5.30;;;;;;;29.12;35.25;100633.20;104494;1309;61419;-82
2022/08/12 12:48:12;;;;;;;6.30;5.00;;;;;;;29.13;35.32;100630.75;104614;1308;61320;-82
2022/08/12 12:50:40;;;;;;;6.40;4.50;;;;;;;29.13;35.36;100624.60;104621;1308;61166;-81
2022/08/12 12:53:07;;;;;;;8.60;5.20;;;;;;;29.13;35.23;100621.11;104539;1308;76314;-82
2022/08/12 12:55:34;;;;;;;7.00;4.90;;;;;;;29.13;35.35;100622.75;104622;1308;61346;-82
2022/08/12 12:58:10;;;;;;;6.00;4.90;;;;;;;29.15;35.33;100622.07;104600;1309;61569;-81
2022/08/12 13:00:39;;;;;;;6.40;4.70;;;;;;;29.15;35.26;100619.88;104522;1308;73816;-82
2022/08/12 13:03:05;;;;;;;5.90;4.40;;;;;;;29.15;35.56;100618.57;104625;1308;75664;-81
2022/08/12 13:05:33;;;;;;;6.30;4.90;;;;;;;29.15;35.13;100620.16;104603;1308;61301;-82
2022/08/12 13:07:59;;;;;;;6.40;4.80;;;;;;;29.16;35.50;100617.73;104609;1308;61589;-80